createdAt,value
2023-01-13T00:01:32.016Z,1.10
2023-01-13T00:04:26.316Z,1.10
2023-01-13T00:07:19.513Z,1.00
2023-01-13T00:10:14.648Z,0.80
2023-01-13T00:13:07.319Z,1.20
2023-01-13T00:16:04.605Z,1.30
2023-01-13T00:18:57.340Z,1.00
2023-01-13T00:21:50.466Z,1.20
2023-01-13T00:24:43.597Z,1.20
2023-01-13T00:27:36.748Z,1.20
2023-01-13T00:30:31.286Z,1.20
2023-01-13T00:33:24.992Z,1.00
2023-01-13T00:36:19.364Z,0.80
2023-01-13T00:39:12.441Z,1.40
2023-01-13T00:42:23.499Z,0.90
2023-01-13T00:45:16.827Z,1.10
2023-01-13T00:48:09.453Z,1.10
2023-01-13T00:51:03.826Z,1.20
2023-01-13T00:53:56.353Z,1.00
2023-01-13T00:56:49.441Z,1.00
2023-01-13T00:59:42.533Z,1.10
2023-01-13T01:02:35.704Z,1.00
2023-01-13T01:05:29.021Z,0.80
2023-01-13T01:08:22.557Z,0.50
2023-01-13T01:11:17.596Z,1.10
2023-01-13T01:14:11.965Z,0.90
2023-01-13T01:17:04.463Z,0.90
2023-01-13T01:19:57.587Z,0.80
2023-01-13T01:22:50.649Z,1.20
2023-01-13T01:25:43.645Z,1.10
2023-01-13T01:28:36.877Z,1.10
2023-01-13T01:31:32.382Z,1.00
2023-01-13T01:34:24.976Z,1.00
2023-01-13T01:37:18.215Z,1.10
2023-01-13T01:40:14.353Z,1.10
2023-01-13T01:43:29.772Z,1.00
2023-01-13T01:46:23.298Z,1.30
2023-01-13T01:49:20.011Z,1.10
2023-01-13T01:52:14.802Z,1.00
2023-01-13T01:55:11.527Z,1.00
2023-01-13T01:58:08.907Z,1.10
2023-01-13T02:01:01.735Z,1.30
2023-01-13T02:03:58.990Z,1.20
2023-01-13T02:06:51.600Z,1.20
2023-01-13T02:09:45.263Z,1.20
2023-01-13T02:12:38.353Z,1.10
2023-01-13T02:15:36.589Z,1.10
2023-01-13T02:18:50.626Z,1.20
2023-01-13T02:22:02.279Z,1.00
2023-01-13T02:25:23.474Z,1.30
2023-01-13T02:29:04.563Z,0.90
2023-01-13T02:32:00.253Z,1.40
2023-01-13T02:34:56.679Z,1.30
2023-01-13T02:37:49.180Z,1.10
2023-01-13T02:40:45.393Z,1.10
2023-01-13T02:43:57.365Z,1.00
2023-01-13T02:46:54.821Z,1.30
2023-01-13T02:49:50.366Z,0.90
2023-01-13T02:52:45.861Z,1.30
2023-01-13T02:55:41.225Z,1.60
2023-01-13T02:58:33.837Z,0.70
2023-01-13T03:01:27.196Z,1.20
2023-01-13T03:04:51.693Z,1.50
2023-01-13T03:08:19.995Z,0.90
2023-01-13T03:11:13.947Z,1.30
2023-01-13T03:14:15.236Z,0.90
2023-01-13T03:17:27.049Z,1.30
2023-01-13T03:20:22.632Z,0.90
2023-01-13T03:23:20.353Z,0.80
2023-01-13T03:26:16.438Z,1.00
2023-01-13T03:29:12.904Z,1.20
2023-01-13T03:32:10.899Z,1.00
2023-01-13T03:35:08.714Z,0.90
2023-01-13T03:38:04.007Z,1.00
2023-01-13T03:40:59.211Z,1.20
2023-01-13T03:44:12.725Z,0.90
2023-01-13T03:47:13.896Z,1.10
2023-01-13T03:50:08.813Z,0.60
2023-01-13T03:53:03.361Z,0.60
2023-01-13T03:55:59.502Z,0.90
2023-01-13T03:58:52.347Z,1.00
2023-01-13T04:02:02.621Z,0.80
2023-01-13T04:04:58.310Z,0.50
2023-01-13T04:07:56.837Z,0.50
2023-01-13T04:10:53.507Z,0.50
2023-01-13T04:13:46.171Z,0.60
2023-01-13T04:16:39.390Z,0.70
2023-01-13T04:19:33.085Z,0.80
2023-01-13T04:22:27.265Z,0.60
2023-01-13T04:25:21.477Z,0.40
2023-01-13T04:28:14.868Z,0.60
2023-01-13T04:31:08.514Z,0.50
2023-01-13T04:34:01.111Z,0.30
2023-01-13T04:36:54.389Z,0.50
2023-01-13T04:39:47.586Z,0.40
2023-01-13T04:42:40.638Z,0.60
2023-01-13T04:45:33.852Z,0.50
2023-01-13T04:48:28.055Z,0.80
2023-01-13T04:51:21.165Z,0.50
2023-01-13T04:54:16.225Z,0.40
2023-01-13T04:57:09.523Z,0.40
2023-01-13T05:00:03.098Z,0.60
2023-01-13T05:02:56.169Z,0.30
2023-01-13T05:05:53.201Z,0.90
2023-01-13T05:08:46.095Z,0.50
2023-01-13T05:11:56.622Z,0.50
2023-01-13T05:15:07.214Z,0.40
2023-01-13T05:18:00.543Z,0.80
2023-01-13T05:20:53.813Z,0.30
2023-01-13T05:24:06.948Z,0.50
2023-01-13T05:27:01.046Z,0.50
2023-01-13T05:29:54.698Z,0.60
2023-01-13T05:32:47.502Z,0.60
2023-01-13T05:35:41.492Z,0.40
2023-01-13T05:38:34.659Z,0.50
2023-01-13T05:41:45.375Z,0.80
2023-01-13T05:44:38.712Z,0.40
2023-01-13T05:47:32.366Z,0.40
2023-01-13T05:50:25.176Z,0.70
2023-01-13T05:53:18.036Z,0.60
2023-01-13T05:56:12.630Z,0.80
2023-01-13T05:59:05.714Z,0.60
2023-01-13T06:01:59.111Z,0.70
2023-01-13T06:04:52.459Z,0.70
2023-01-13T06:07:44.970Z,1.00
2023-01-13T06:10:38.957Z,0.70
2023-01-13T06:13:31.519Z,0.90
2023-01-13T06:16:24.721Z,0.80
2023-01-13T06:19:17.926Z,0.80
2023-01-13T06:22:16.452Z,0.70
2023-01-13T06:25:13.980Z,0.80
2023-01-13T06:28:06.526Z,0.60
2023-01-13T06:31:01.049Z,0.80
2023-01-13T06:33:56.349Z,0.60
2023-01-13T06:36:51.777Z,0.80
2023-01-13T06:39:44.528Z,0.70
2023-01-13T06:42:56.345Z,0.70
2023-01-13T06:45:52.306Z,0.60
2023-01-13T06:48:45.042Z,0.60
2023-01-13T06:51:37.565Z,0.70
2023-01-13T06:54:30.406Z,0.60
2023-01-13T06:57:23.461Z,0.50
2023-01-13T07:00:19.182Z,0.60
2023-01-13T07:03:14.465Z,0.80
2023-01-13T07:06:08.809Z,0.70
2023-01-13T07:09:01.746Z,0.70
2023-01-13T07:11:55.184Z,0.70
2023-01-13T07:15:06.209Z,0.50
2023-01-13T07:17:59.849Z,0.70
2023-01-13T07:20:58.373Z,0.60
2023-01-13T07:23:51.423Z,0.70
2023-01-13T07:26:44.519Z,0.40
2023-01-13T07:29:38.312Z,0.90
2023-01-13T07:32:32.277Z,0.70
2023-01-13T07:35:25.776Z,0.90
2023-01-13T07:38:19.570Z,0.90
2023-01-13T07:41:32.072Z,0.80
2023-01-13T07:44:25.254Z,0.60
2023-01-13T07:47:19.816Z,0.60
2023-01-13T07:50:14.713Z,0.90
2023-01-13T07:53:07.908Z,0.90
2023-01-13T07:56:00.817Z,1.00
2023-01-13T07:58:53.353Z,0.80
2023-01-13T08:01:46.086Z,1.20
2023-01-13T08:04:39.425Z,1.00
2023-01-13T08:07:32.186Z,1.20
2023-01-13T08:10:25.455Z,1.00
2023-01-13T08:13:20.255Z,1.10
2023-01-13T08:16:14.527Z,0.80
2023-01-13T08:19:07.183Z,0.90
2023-01-13T08:22:00.226Z,0.80
2023-01-13T08:24:52.991Z,0.80
2023-01-13T08:27:45.706Z,0.80
2023-01-13T08:30:38.466Z,1.00
2023-01-13T08:33:31.274Z,0.70
2023-01-13T08:36:25.575Z,0.80
2023-01-13T08:39:18.692Z,1.00
2023-01-13T08:42:11.331Z,0.70
2023-01-13T08:45:03.892Z,1.10
2023-01-13T08:47:56.516Z,1.10
2023-01-13T08:50:49.764Z,1.10
2023-01-13T08:53:42.951Z,0.80
2023-01-13T08:56:36.350Z,1.00
2023-01-13T08:59:29.619Z,1.00
2023-01-13T09:02:24.319Z,1.30
2023-01-13T09:05:18.021Z,1.10
2023-01-13T09:08:11.714Z,1.20
2023-01-13T09:11:25.113Z,1.60
2023-01-13T09:14:20.957Z,1.80
2023-01-13T09:17:13.607Z,1.60
2023-01-13T09:20:08.268Z,1.30
2023-01-13T09:23:00.910Z,2.20
2023-01-13T09:25:54.881Z,1.60
2023-01-13T09:28:48.035Z,0.80
2023-01-13T09:31:43.910Z,1.20
2023-01-13T09:34:55.043Z,1.30
2023-01-13T09:37:48.773Z,1.00
2023-01-13T09:40:43.718Z,1.10
2023-01-13T09:43:57.519Z,1.30
2023-01-13T09:46:53.253Z,1.50
2023-01-13T09:49:46.382Z,1.30
2023-01-13T09:52:39.623Z,1.10
2023-01-13T09:55:36.872Z,1.00
2023-01-13T09:58:29.941Z,0.90
2023-01-13T10:01:28.076Z,1.10
2023-01-13T10:04:20.804Z,1.10
2023-01-13T10:07:16.536Z,1.00
2023-01-13T10:10:13.850Z,1.20
2023-01-13T10:13:15.306Z,1.20
2023-01-13T10:16:23.597Z,1.80
2023-01-13T10:19:22.673Z,1.30
2023-01-13T10:22:45.728Z,1.40
2023-01-13T10:25:50.073Z,1.20
2023-01-13T10:28:42.773Z,1.60
2023-01-13T10:31:35.939Z,1.30
2023-01-13T10:34:30.223Z,1.30
2023-01-13T10:37:27.873Z,1.80
2023-01-13T10:40:22.243Z,1.50
2023-01-13T10:43:15.217Z,1.20
2023-01-13T10:46:11.943Z,1.40
2023-01-13T10:49:05.519Z,2.00
2023-01-13T10:51:58.211Z,1.60
2023-01-13T10:54:55.494Z,1.80
2023-01-13T10:57:48.665Z,1.70
2023-01-13T11:00:41.976Z,1.70
2023-01-13T11:03:47.105Z,1.40
2023-01-13T11:06:40.301Z,1.20
2023-01-13T11:09:34.447Z,1.10
2023-01-13T11:12:36.147Z,2.30
2023-01-13T11:15:35.164Z,1.70
2023-01-13T11:18:32.279Z,2.00
2023-01-13T11:21:28.902Z,1.50
2023-01-13T11:24:26.484Z,1.30
2023-01-13T11:27:22.972Z,1.40
2023-01-13T11:30:22.325Z,1.50
2023-01-13T11:33:31.748Z,1.50
2023-01-13T11:36:25.942Z,1.60
2023-01-13T11:39:22.479Z,1.20
2023-01-13T11:42:24.386Z,1.30
2023-01-13T11:45:22.731Z,1.10
2023-01-13T11:48:19.636Z,1.40
2023-01-13T11:51:22.875Z,1.30
2023-01-13T11:54:34.052Z,1.10
2023-01-13T11:58:01.193Z,1.30
2023-01-13T12:01:05.282Z,1.50
2023-01-13T12:04:07.174Z,1.50
2023-01-13T12:07:13.015Z,1.50
2023-01-13T12:10:13.268Z,1.70
2023-01-13T12:13:11.176Z,1.60
2023-01-13T12:16:12.888Z,1.70
2023-01-13T12:19:25.514Z,1.60
2023-01-13T12:22:21.753Z,1.70
2023-01-13T12:25:22.493Z,1.50
2023-01-13T12:28:17.365Z,1.60
2023-01-13T12:31:10.289Z,1.90
2023-01-13T12:34:20.621Z,1.90
2023-01-13T12:37:17.191Z,1.70
2023-01-13T12:40:23.202Z,1.80
2023-01-13T12:46:56.188Z,1.70
2023-01-13T12:49:48.809Z,1.70
2023-01-13T12:52:48.337Z,2.20
2023-01-13T12:55:41.033Z,2.20
2023-01-13T12:58:34.133Z,2.30
2023-01-13T13:01:42.288Z,2.00
2023-01-13T13:04:49.388Z,2.50
2023-01-13T13:07:45.823Z,1.80
2023-01-13T13:10:41.666Z,1.70
2023-01-13T13:13:48.955Z,1.40
2023-01-13T13:16:53.063Z,2.10
2023-01-13T13:19:48.952Z,1.60
2023-01-13T13:22:46.957Z,1.50
2023-01-13T13:25:40.232Z,1.70
2023-01-13T13:28:35.511Z,1.60
2023-01-13T13:31:36.920Z,1.70
2023-01-13T13:34:33.455Z,1.50
2023-01-13T13:37:56.685Z,1.20
2023-01-13T13:41:09.730Z,1.20
2023-01-13T13:44:29.304Z,1.40
2023-01-13T13:47:22.495Z,1.70
2023-01-13T13:50:20.046Z,1.50
2023-01-13T13:53:12.779Z,1.50
2023-01-13T13:56:08.439Z,1.70
2023-01-13T13:59:01.743Z,1.40
2023-01-13T14:02:01.668Z,1.50
2023-01-13T14:05:06.992Z,1.60
2023-01-13T14:08:05.162Z,1.50
2023-01-13T14:10:57.974Z,1.60
2023-01-13T14:13:51.620Z,1.30
2023-01-13T14:16:44.934Z,1.20
2023-01-13T14:19:44.317Z,1.30
2023-01-13T14:22:37.521Z,1.20
2023-01-13T14:25:37.042Z,1.40
2023-01-13T14:28:32.288Z,1.10
2023-01-13T14:31:25.055Z,1.30
2023-01-13T14:34:32.410Z,1.30
2023-01-13T14:37:36.285Z,1.60
2023-01-13T14:40:46.958Z,1.90
2023-01-13T14:43:44.765Z,1.90
2023-01-13T14:46:45.945Z,1.60
2023-01-13T14:49:42.460Z,1.40
2023-01-13T14:52:37.051Z,2.20
2023-01-13T14:55:32.430Z,1.80
2023-01-13T14:58:31.970Z,1.40
2023-01-13T15:01:36.426Z,1.80
2023-01-13T15:04:39.243Z,1.60
2023-01-13T15:07:33.291Z,1.30
2023-01-13T15:10:27.940Z,1.50
2023-01-13T15:13:32.061Z,2.00
2023-01-13T15:16:26.420Z,2.00
2023-01-13T15:19:19.226Z,1.70
2023-01-13T15:22:12.546Z,1.80
2023-01-13T15:25:09.557Z,1.90
2023-01-13T15:28:02.232Z,1.80
2023-01-13T15:30:55.896Z,2.10
2023-01-13T15:33:48.529Z,1.80
2023-01-13T15:36:42.281Z,2.10
2023-01-13T15:39:35.038Z,2.40
2023-01-13T15:42:45.668Z,1.80
2023-01-13T15:46:10.739Z,2.00
2023-01-13T15:49:09.882Z,2.00
2023-01-13T15:52:02.965Z,1.70
2023-01-13T15:54:55.869Z,1.70
2023-01-13T15:57:50.795Z,2.00
2023-01-13T16:00:43.598Z,5.30
2023-01-13T16:03:36.171Z,2.20
2023-01-13T16:06:34.527Z,1.90
2023-01-13T16:09:27.099Z,2.20
2023-01-13T16:12:19.727Z,1.80
2023-01-13T16:15:15.592Z,2.50
2023-01-13T16:20:59.515Z,1.30
2023-01-13T16:23:52.165Z,1.40
2023-01-13T16:26:44.802Z,1.60
2023-01-13T16:29:37.442Z,1.80
2023-01-13T16:32:30.043Z,1.60
2023-01-13T16:35:22.825Z,1.50
2023-01-13T16:38:19.205Z,1.90
2023-01-13T16:41:11.737Z,2.00
2023-01-13T16:44:06.038Z,1.90
2023-01-13T16:46:58.716Z,1.60
2023-01-13T16:49:51.409Z,1.70
2023-01-13T16:52:45.195Z,2.10
2023-01-13T16:55:37.869Z,1.80
2023-01-13T16:58:30.626Z,1.50
2023-01-13T17:01:26.233Z,1.30
2023-01-13T17:04:20.843Z,1.60
2023-01-13T17:07:17.774Z,1.50
2023-01-13T17:10:13.921Z,4.40
2023-01-13T17:13:15.563Z,2.60
2023-01-13T17:16:21.128Z,5.00
2023-01-13T17:19:15.194Z,3.50
2023-01-13T17:22:07.839Z,2.20
2023-01-13T17:25:00.439Z,1.70
2023-01-13T17:27:53.032Z,1.50
2023-01-13T17:30:47.965Z,1.40
2023-01-13T17:33:40.559Z,1.50
2023-01-13T17:36:33.240Z,1.50
2023-01-13T17:39:28.420Z,1.60
2023-01-13T17:42:20.981Z,1.60
2023-01-13T17:45:14.794Z,1.30
2023-01-13T17:48:07.788Z,1.20
2023-01-13T17:51:00.675Z,1.20
2023-01-13T17:53:53.461Z,1.40
2023-01-13T17:56:46.492Z,1.30
2023-01-13T17:59:41.262Z,1.10
2023-01-13T18:02:33.960Z,1.50
2023-01-13T18:05:27.903Z,1.20
2023-01-13T18:08:23.615Z,1.10
2023-01-13T18:11:18.654Z,1.40
2023-01-13T18:14:11.743Z,1.30
2023-01-13T18:17:04.440Z,1.50
2023-01-13T18:20:14.685Z,1.60
2023-01-13T18:23:24.566Z,1.30
2023-01-13T18:26:37.999Z,1.60
2023-01-13T18:29:30.605Z,1.00
2023-01-13T18:32:23.552Z,1.60
2023-01-13T18:35:16.143Z,1.70
2023-01-13T18:38:08.805Z,1.90
2023-01-13T18:41:21.622Z,2.70
2023-01-13T18:44:14.373Z,2.70
2023-01-13T18:47:06.976Z,2.30
2023-01-13T18:49:59.674Z,3.90
2023-01-13T18:52:52.213Z,5.20
2023-01-13T18:55:44.823Z,6.10
2023-01-13T18:58:37.401Z,3.10
2023-01-13T19:01:31.132Z,2.50
2023-01-13T19:04:23.875Z,1.50
2023-01-13T19:07:22.257Z,1.70
2023-01-13T19:10:17.030Z,2.10
2023-01-13T19:13:09.668Z,1.70
2023-01-13T19:16:08.158Z,1.60
2023-01-13T19:19:01.323Z,1.70
2023-01-13T19:21:53.856Z,1.80
2023-01-13T19:24:46.656Z,1.90
2023-01-13T19:27:39.880Z,1.60
2023-01-13T19:30:32.518Z,1.60
2023-01-13T19:33:25.678Z,1.70
2023-01-13T19:36:18.822Z,1.70
2023-01-13T19:39:11.932Z,1.80
2023-01-13T19:42:22.705Z,1.80
2023-01-13T19:45:27.256Z,1.90
2023-01-13T19:48:21.191Z,1.80
2023-01-13T19:51:14.628Z,2.00
2023-01-13T19:54:07.649Z,1.80
2023-01-13T19:57:00.246Z,2.50
2023-01-13T19:59:52.779Z,1.50
2023-01-13T20:02:49.430Z,1.60
2023-01-13T20:05:43.209Z,1.60
2023-01-13T20:08:36.465Z,1.10
2023-01-13T20:11:33.121Z,1.40
2023-01-13T20:14:26.653Z,1.90
2023-01-13T20:17:20.591Z,1.30
2023-01-13T20:20:15.855Z,1.40
2023-01-13T20:23:08.682Z,1.80
2023-01-13T20:26:01.328Z,2.70
2023-01-13T20:28:53.932Z,1.90
2023-01-13T20:31:47.875Z,1.70
2023-01-13T20:34:40.751Z,1.70
2023-01-13T20:37:33.464Z,1.90
2023-01-13T20:40:27.699Z,2.00
2023-01-13T20:43:21.211Z,1.80
2023-01-13T20:46:14.279Z,1.70
2023-01-13T20:49:07.076Z,2.20
2023-01-13T20:51:59.690Z,2.30
2023-01-13T20:54:52.640Z,1.90
2023-01-13T20:57:48.573Z,1.70
2023-01-13T21:00:41.215Z,1.50
2023-01-13T21:03:34.196Z,1.60
2023-01-13T21:06:27.291Z,1.50
2023-01-13T21:09:20.386Z,1.90
2023-01-13T21:12:33.398Z,2.20
2023-01-13T21:15:27.420Z,1.70
2023-01-13T21:18:37.905Z,2.10
2023-01-13T21:21:30.911Z,2.10
2023-01-13T21:24:23.646Z,2.20
2023-01-13T21:27:16.916Z,2.30
2023-01-13T21:30:17.083Z,1.70
2023-01-13T21:33:11.940Z,1.80
2023-01-13T21:36:09.583Z,1.80
2023-01-13T21:39:03.035Z,2.10
2023-01-13T21:42:14.054Z,2.20
2023-01-13T21:45:27.659Z,1.90
2023-01-13T21:48:21.026Z,1.70
2023-01-13T21:51:14.340Z,1.60
2023-01-13T21:54:07.173Z,1.90
2023-01-13T21:57:00.754Z,1.90
2023-01-13T21:59:54.350Z,2.10
2023-01-13T22:02:48.134Z,1.90
2023-01-13T22:05:40.912Z,1.90
2023-01-13T22:08:35.713Z,2.00
2023-01-13T22:11:29.065Z,1.80
2023-01-13T22:14:24.012Z,2.00
2023-01-13T22:17:20.753Z,2.10
2023-01-13T22:20:18.196Z,2.00
2023-01-13T22:23:10.739Z,2.40
2023-01-13T22:26:06.561Z,2.70
2023-01-13T22:28:59.415Z,2.30
2023-01-13T22:31:52.668Z,2.00
2023-01-13T22:34:46.152Z,2.30
2023-01-13T22:37:39.459Z,2.00
2023-01-13T22:40:32.655Z,2.20
2023-01-13T22:43:25.829Z,2.00
2023-01-13T22:46:19.334Z,2.10
2023-01-13T22:49:11.918Z,2.10
2023-01-13T22:52:05.865Z,2.60
2023-01-13T22:55:00.782Z,2.30
2023-01-13T22:57:53.554Z,2.00
2023-01-13T23:00:47.503Z,2.00
2023-01-13T23:03:40.766Z,2.30
2023-01-13T23:06:35.145Z,2.20
2023-01-13T23:09:29.890Z,1.70
2023-01-13T23:12:22.731Z,2.30
2023-01-13T23:15:17.247Z,2.10
2023-01-13T23:18:10.421Z,2.60
2023-01-13T23:21:08.574Z,2.10
2023-01-13T23:24:01.394Z,2.00
2023-01-13T23:26:53.968Z,2.60
2023-01-13T23:29:47.274Z,2.30
2023-01-13T23:32:40.440Z,2.30
2023-01-13T23:35:33.555Z,2.10
2023-01-13T23:38:26.808Z,1.90
2023-01-13T23:41:22.543Z,1.80
2023-01-13T23:44:15.219Z,2.10
2023-01-13T23:47:08.504Z,2.30
2023-01-13T23:50:01.622Z,1.90
2023-01-13T23:52:54.865Z,2.00
2023-01-13T23:55:47.991Z,2.30
2023-01-13T23:58:41.148Z,1.90
